aviador You're here:

MMEP Decoded Metar

TEPIC in MEXICO
Report Time2017-07-24 21:46:00
UTC Time2017-07-24 22:30:33
Flight Rules vfr VFR
Wind150° at 04 kt
W.Decomp.*RWY 20: 2.1 kt HW 3.4 kt LCW
W.Rank150° ranks 15
Current wind is below 150° avg. (4.6)
Visibility9999 m
Phenomena:N/A
Clouds:Scattered CB 015 Hf
Broken 080 Hf
Broken 250 Hf
Expected CloudBase > 1,200 ft AGL from Temp-Dew spread
Ceiling8,000 ft
Temp22°C (ISA +13)
Dew Point19°C (83% RH)
QNH1015 hPa
Density Alt4,770 ft
Elevation3,025 ft
Report Wrong Elevation
Raw Report
MMEP 242146Z 15004KT 8SM SCT015CB BKN080 BKN250 22/19 A2996 RMK
61005 8/363 RAE35=

Extra information for MMEP:More info

Metar Taf Metar & Taf Last 4 Metars F.Rules Stats Wind Profile Meteogram Temp Stats Airport Information Weather charts Add Link Nearby VenuesMetar ALERT Operation Metar Decoded Social comments